sensor_id;sensor_type;location;lat;lon;timestamp;pressure;altitude;pressure_sealevel;temperature;humidity
6464;BME280;3265;42.694;23.282;2023-04-28T00:00:46;94857.81;;;6.87;67.59
6464;BME280;3265;42.694;23.282;2023-04-28T00:03:13;94859.97;;;6.83;68.05
6464;BME280;3265;42.694;23.282;2023-04-28T00:05:40;94858.19;;;6.83;67.75
6464;BME280;3265;42.694;23.282;2023-04-28T00:08:08;94854.81;;;6.83;67.85
6464;BME280;3265;42.694;23.282;2023-04-28T00:10:37;94853.16;;;6.75;67.70
6464;BME280;3265;42.694;23.282;2023-04-28T00:13:04;94855.28;;;6.65;68.27
6464;BME280;3265;42.694;23.282;2023-04-28T00:15:31;94857.66;;;6.60;68.28
6464;BME280;3265;42.694;23.282;2023-04-28T00:17:58;94859.56;;;6.52;68.91
6464;BME280;3265;42.694;23.282;2023-04-28T00:20:24;94856.34;;;6.50;68.93
6464;BME280;3265;42.694;23.282;2023-04-28T00:22:51;94856.34;;;6.43;69.27
6464;BME280;3265;42.694;23.282;2023-04-28T00:25:20;94857.69;;;6.39;69.55
6464;BME280;3265;42.694;23.282;2023-04-28T00:27:46;94857.09;;;6.37;69.52
6464;BME280;3265;42.694;23.282;2023-04-28T00:30:13;94854.88;;;6.34;69.71
6464;BME280;3265;42.694;23.282;2023-04-28T00:32:40;94841.47;;;6.24;69.66
6464;BME280;3265;42.694;23.282;2023-04-28T00:35:08;94865.94;;;6.28;69.71
6464;BME280;3265;42.694;23.282;2023-04-28T00:37:35;94866.47;;;6.23;69.21
6464;BME280;3265;42.694;23.282;2023-04-28T00:40:03;94867.72;;;6.06;70.72
6464;BME280;3265;42.694;23.282;2023-04-28T00:42:31;94867.78;;;5.92;71.51
6464;BME280;3265;42.694;23.282;2023-04-28T00:44:58;94869.94;;;5.88;71.28
6464;BME280;3265;42.694;23.282;2023-04-28T00:47:30;94873.13;;;5.90;71.05
6464;BME280;3265;42.694;23.282;2023-04-28T00:49:57;94879.91;;;5.91;71.96
6464;BME280;3265;42.694;23.282;2023-04-28T00:52:24;94873.94;;;5.91;71.98
6464;BME280;3265;42.694;23.282;2023-04-28T00:54:51;94868.88;;;5.83;72.44
6464;BME280;3265;42.694;23.282;2023-04-28T00:57:18;94863.81;;;5.74;71.88
6464;BME280;3265;42.694;23.282;2023-04-28T00:59:46;94870.91;;;5.87;72.22
6464;BME280;3265;42.694;23.282;2023-04-28T01:02:13;94869.94;;;5.88;72.16
6464;BME280;3265;42.694;23.282;2023-04-28T01:04:43;94882.19;;;5.86;71.87
6464;BME280;3265;42.694;23.282;2023-04-28T01:07:10;94883.44;;;5.90;71.62
6464;BME280;3265;42.694;23.282;2023-04-28T01:09:37;94875.28;;;5.87;72.17
6464;BME280;3265;42.694;23.282;2023-04-28T01:12:04;94884.78;;;5.86;71.84
6464;BME280;3265;42.694;23.282;2023-04-28T01:14:32;94881.44;;;5.86;71.63
6464;BME280;3265;42.694;23.282;2023-04-28T01:17:00;94883.34;;;5.84;71.54
6464;BME280;3265;42.694;23.282;2023-04-28T01:19:28;94881.94;;;5.81;71.71
6464;BME280;3265;42.694;23.282;2023-04-28T01:21:55;94889.50;;;5.83;71.77
6464;BME280;3265;42.694;23.282;2023-04-28T01:24:24;94888.50;;;5.84;71.72
6464;BME280;3265;42.694;23.282;2023-04-28T01:26:51;94883.47;;;5.76;72.41
6464;BME280;3265;42.694;23.282;2023-04-28T01:29:18;94871.91;;;5.71;71.19
6464;BME280;3265;42.694;23.282;2023-04-28T01:31:45;94880.97;;;5.82;71.26
6464;BME280;3265;42.694;23.282;2023-04-28T01:34:11;94884.34;;;5.83;71.49
6464;BME280;3265;42.694;23.282;2023-04-28T01:36:38;94885.44;;;5.73;71.10
6464;BME280;3265;42.694;23.282;2023-04-28T01:39:05;94882.22;;;5.71;71.29
6464;BME280;3265;42.694;23.282;2023-04-28T01:41:33;94876.00;;;5.66;71.91
6464;BME280;3265;42.694;23.282;2023-04-28T01:44:00;94887.72;;;5.68;71.33
6464;BME280;3265;42.694;23.282;2023-04-28T01:46:28;94885.53;;;5.65;71.98
6464;BME280;3265;42.694;23.282;2023-04-28T01:48:55;94886.31;;;5.66;72.20
6464;BME280;3265;42.694;23.282;2023-04-28T01:51:21;94881.53;;;5.63;71.74
6464;BME280;3265;42.694;23.282;2023-04-28T01:53:48;94885.53;;;5.65;71.90
6464;BME280;3265;42.694;23.282;2023-04-28T01:56:15;94891.06;;;5.62;71.73
6464;BME280;3265;42.694;23.282;2023-04-28T01:58:43;94882.53;;;5.62;72.21
6464;BME280;3265;42.694;23.282;2023-04-28T02:01:10;94886.69;;;5.63;72.50
6464;BME280;3265;42.694;23.282;2023-04-28T02:03:37;94890.88;;;5.64;72.19
6464;BME280;3265;42.694;23.282;2023-04-28T02:06:04;94885.09;;;5.62;71.77
6464;BME280;3265;42.694;23.282;2023-04-28T02:08:31;94888.66;;;5.61;72.75
6464;BME280;3265;42.694;23.282;2023-04-28T02:10:58;94894.00;;;5.59;72.84
6464;BME280;3265;42.694;23.282;2023-04-28T02:13:26;94888.59;;;5.40;73.33
6464;BME280;3265;42.694;23.282;2023-04-28T02:15:54;94891.13;;;5.33;74.00
6464;BME280;3265;42.694;23.282;2023-04-28T02:18:21;94884.09;;;5.27;73.86
6464;BME280;3265;42.694;23.282;2023-04-28T02:20:47;94895.22;;;5.28;74.11
6464;BME280;3265;42.694;23.282;2023-04-28T02:23:14;94891.03;;;5.27;74.29
6464;BME280;3265;42.694;23.282;2023-04-28T02:25:41;94897.78;;;5.28;74.02
6464;BME280;3265;42.694;23.282;2023-04-28T02:28:08;94896.06;;;5.35;74.77
6464;BME280;3265;42.694;23.282;2023-04-28T02:30:34;94897.69;;;5.36;74.11
6464;BME280;3265;42.694;23.282;2023-04-28T02:33:02;94896.28;;;5.33;74.48
6464;BME280;3265;42.694;23.282;2023-04-28T02:35:29;94901.41;;;5.33;74.51
6464;BME280;3265;42.694;23.282;2023-04-28T02:37:56;94901.41;;;5.33;73.72
6464;BME280;3265;42.694;23.282;2023-04-28T02:40:23;94902.59;;;5.31;73.81
6464;BME280;3265;42.694;23.282;2023-04-28T02:42:50;94900.41;;;5.34;73.63
6464;BME280;3265;42.694;23.282;2023-04-28T02:45:17;94906.63;;;5.40;74.30
6464;BME280;3265;42.694;23.282;2023-04-28T02:47:43;94905.41;;;5.36;73.91
6464;BME280;3265;42.694;23.282;2023-04-28T02:50:12;94910.81;;;5.41;73.90
6464;BME280;3265;42.694;23.282;2023-04-28T02:52:38;94908.84;;;5.43;74.26
6464;BME280;3265;42.694;23.282;2023-04-28T02:55:06;94908.69;;;5.44;73.51
6464;BME280;3265;42.694;23.282;2023-04-28T02:57:32;94919.81;;;5.45;73.75
6464;BME280;3265;42.694;23.282;2023-04-28T02:59:59;94918.56;;;5.41;72.66
6464;BME280;3265;42.694;23.282;2023-04-28T03:02:26;94922.47;;;5.37;73.07
6464;BME280;3265;42.694;23.282;2023-04-28T03:04:53;94924.41;;;5.35;73.71
6464;BME280;3265;42.694;23.282;2023-04-28T03:07:21;94921.84;;;5.35;72.89
6464;BME280;3265;42.694;23.282;2023-04-28T03:09:48;94919.25;;;5.35;73.14
6464;BME280;3265;42.694;23.282;2023-04-28T03:12:15;94926.84;;;5.36;72.79
6464;BME280;3265;42.694;23.282;2023-04-28T03:14:41;94930.56;;;5.34;73.01
6464;BME280;3265;42.694;23.282;2023-04-28T03:17:08;94926.91;;;5.28;73.70
6464;BME280;3265;42.694;23.282;2023-04-28T03:19:35;94928.97;;;5.33;73.18
6464;BME280;3265;42.694;23.282;2023-04-28T03:22:02;94936.13;;;5.37;73.90
6464;BME280;3265;42.694;23.282;2023-04-28T03:24:30;94931.53;;;5.33;73.37
6464;BME280;3265;42.694;23.282;2023-04-28T03:26:57;94934.72;;;5.35;72.88
6464;BME280;3265;42.694;23.282;2023-04-28T03:29:24;94944.41;;;5.33;72.42
6464;BME280;3265;42.694;23.282;2023-04-28T03:31:51;94953.91;;;5.32;72.78
6464;BME280;3265;42.694;23.282;2023-04-28T03:34:17;94953.56;;;5.35;72.90
6464;BME280;3265;42.694;23.282;2023-04-28T03:36:44;94963.63;;;5.30;72.34
6464;BME280;3265;42.694;23.282;2023-04-28T03:39:11;94962.19;;;5.28;72.53
6464;BME280;3265;42.694;23.282;2023-04-28T03:41:39;94964.41;;;5.31;72.70
6464;BME280;3265;42.694;23.282;2023-04-28T03:44:06;94974.06;;;5.29;72.66
6464;BME280;3265;42.694;23.282;2023-04-28T03:46:33;94975.50;;;5.31;71.88
6464;BME280;3265;42.694;23.282;2023-04-28T03:48:59;94966.81;;;5.32;72.70
6464;BME280;3265;42.694;23.282;2023-04-28T03:51:27;94975.16;;;5.34;72.10
6464;BME280;3265;42.694;23.282;2023-04-28T03:53:53;94981.75;;;5.37;71.91
6464;BME280;3265;42.694;23.282;2023-04-28T03:56:20;94959.16;;;5.09;72.23
6464;BME280;3265;42.694;23.282;2023-04-28T03:58:48;94984.56;;;5.27;72.58
6464;BME280;3265;42.694;23.282;2023-04-28T04:01:15;94991.97;;;5.30;71.78
6464;BME280;3265;42.694;23.282;2023-04-28T04:03:42;94996.56;;;5.35;72.43
6464;BME280;3265;42.694;23.282;2023-04-28T04:06:09;94990.97;;;5.31;71.38
6464;BME280;3265;42.694;23.282;2023-04-28T04:08:36;94991.88;;;5.38;70.79
6464;BME280;3265;42.694;23.282;2023-04-28T04:11:03;95001.09;;;5.33;70.99
6464;BME280;3265;42.694;23.282;2023-04-28T04:13:29;94995.75;;;5.34;72.15
6464;BME280;3265;42.694;23.282;2023-04-28T04:15:58;94996.56;;;5.35;71.25
6464;BME280;3265;42.694;23.282;2023-04-28T04:18:25;95000.41;;;5.39;70.90
6464;BME280;3265;42.694;23.282;2023-04-28T04:20:51;95005.81;;;5.44;71.51
6464;BME280;3265;42.694;23.282;2023-04-28T04:23:20;95004.13;;;5.36;71.17
6464;BME280;3265;42.694;23.282;2023-04-28T04:25:47;95013.63;;;5.36;71.02
6464;BME280;3265;42.694;23.282;2023-04-28T04:28:14;95018.16;;;5.19;71.38
6464;BME280;3265;42.694;23.282;2023-04-28T04:30:41;95004.19;;;4.99;72.68
6464;BME280;3265;42.694;23.282;2023-04-28T04:33:09;95013.56;;;4.92;72.93
6464;BME280;3265;42.694;23.282;2023-04-28T04:35:36;95015.09;;;5.01;72.70
6464;BME280;3265;42.694;23.282;2023-04-28T04:38:03;95018.63;;;5.00;72.61
6464;BME280;3265;42.694;23.282;2023-04-28T04:40:29;94999.88;;;4.91;72.73
6464;BME280;3265;42.694;23.282;2023-04-28T04:42:56;95013.03;;;4.96;72.40
6464;BME280;3265;42.694;23.282;2023-04-28T04:45:23;95019.28;;;5.02;73.10
6464;BME280;3265;42.694;23.282;2023-04-28T04:47:50;95022.94;;;5.07;73.21
6464;BME280;3265;42.694;23.282;2023-04-28T04:50:19;95026.94;;;5.10;72.42
6464;BME280;3265;42.694;23.282;2023-04-28T04:52:45;95032.63;;;5.20;71.98
6464;BME280;3265;42.694;23.282;2023-04-28T04:55:12;95034.34;;;5.28;72.47
6464;BME280;3265;42.694;23.282;2023-04-28T04:57:52;95030.59;;;5.30;71.76
6464;BME280;3265;42.694;23.282;2023-04-28T05:00:19;95035.06;;;5.36;72.27
6464;BME280;3265;42.694;23.282;2023-04-28T05:02:46;95040.72;;;5.46;71.45
6464;BME280;3265;42.694;23.282;2023-04-28T05:05:13;95049.47;;;5.45;71.76
6464;BME280;3265;42.694;23.282;2023-04-28T05:07:41;95040.22;;;5.51;71.42
6464;BME280;3265;42.694;23.282;2023-04-28T05:10:09;95047.06;;;5.58;72.09
6464;BME280;3265;42.694;23.282;2023-04-28T05:12:37;95036.28;;;5.69;72.15
6464;BME280;3265;42.694;23.282;2023-04-28T05:15:04;95040.75;;;5.90;70.61
6464;BME280;3265;42.694;23.282;2023-04-28T05:17:32;95045.72;;;5.92;70.60
6464;BME280;3265;42.694;23.282;2023-04-28T05:19:59;95049.56;;;5.96;70.61
6464;BME280;3265;42.694;23.282;2023-04-28T05:22:25;95051.44;;;6.02;70.59
6464;BME280;3265;42.694;23.282;2023-04-28T05:24:54;95050.47;;;5.88;70.49
6464;BME280;3265;42.694;23.282;2023-04-28T05:27:20;95045.66;;;5.85;71.49
6464;BME280;3265;42.694;23.282;2023-04-28T05:29:47;95048.38;;;5.84;71.33
6464;BME280;3265;42.694;23.282;2023-04-28T05:32:14;95051.75;;;5.84;71.83
6464;BME280;3265;42.694;23.282;2023-04-28T05:34:41;95042.44;;;5.98;71.87
6464;BME280;3265;42.694;23.282;2023-04-28T05:37:08;95042.34;;;6.06;71.10
6464;BME280;3265;42.694;23.282;2023-04-28T05:39:34;95034.94;;;6.17;71.49
6464;BME280;3265;42.694;23.282;2023-04-28T05:42:04;95034.25;;;6.09;69.63
6464;BME280;3265;42.694;23.282;2023-04-28T05:44:31;95035.03;;;6.09;70.28
6464;BME280;3265;42.694;23.282;2023-04-28T05:46:58;95043.66;;;6.16;70.42
6464;BME280;3265;42.694;23.282;2023-04-28T05:49:24;95044.50;;;6.38;68.69
6464;BME280;3265;42.694;23.282;2023-04-28T05:51:51;95042.00;;;6.45;68.84
6464;BME280;3265;42.694;23.282;2023-04-28T05:54:18;95044.06;;;6.35;69.03
6464;BME280;3265;42.694;23.282;2023-04-28T05:56:45;95050.91;;;6.42;69.08
6464;BME280;3265;42.694;23.282;2023-04-28T05:59:13;95019.03;;;6.14;68.41
6464;BME280;3265;42.694;23.282;2023-04-28T06:01:41;95052.59;;;6.35;68.79
6464;BME280;3265;42.694;23.282;2023-04-28T06:04:08;95056.22;;;6.41;68.73
6464;BME280;3265;42.694;23.282;2023-04-28T06:06:35;95049.03;;;6.36;68.81
6464;BME280;3265;42.694;23.282;2023-04-28T06:09:01;95047.63;;;6.34;68.25
6464;BME280;3265;42.694;23.282;2023-04-28T06:11:28;95045.97;;;6.47;68.57
6464;BME280;3265;42.694;23.282;2023-04-28T06:13:55;95052.63;;;6.56;68.84
6464;BME280;3265;42.694;23.282;2023-04-28T06:16:24;95048.94;;;6.65;68.37
6464;BME280;3265;42.694;23.282;2023-04-28T06:18:50;95050.59;;;6.73;67.35
6464;BME280;3265;42.694;23.282;2023-04-28T06:21:17;95046.97;;;6.67;66.95
6464;BME280;3265;42.694;23.282;2023-04-28T06:23:45;95033.63;;;6.64;67.52
6464;BME280;3265;42.694;23.282;2023-04-28T06:26:12;95052.91;;;6.82;67.41
6464;BME280;3265;42.694;23.282;2023-04-28T06:28:39;95053.81;;;6.96;67.06
6464;BME280;3265;42.694;23.282;2023-04-28T06:31:06;95057.69;;;7.07;67.01
6464;BME280;3265;42.694;23.282;2023-04-28T06:33:34;95059.34;;;7.14;66.53
6464;BME280;3265;42.694;23.282;2023-04-28T06:39:14;95050.53;;;7.30;65.06
6464;BME280;3265;42.694;23.282;2023-04-28T06:41:40;95055.13;;;7.34;64.85
6464;BME280;3265;42.694;23.282;2023-04-28T06:44:07;95062.28;;;7.39;64.18
6464;BME280;3265;42.694;23.282;2023-04-28T06:46:35;95032.00;;;7.26;64.39
6464;BME280;3265;42.694;23.282;2023-04-28T06:49:04;95055.03;;;7.21;65.13
6464;BME280;3265;42.694;23.282;2023-04-28T06:51:31;95052.72;;;7.33;64.84
6464;BME280;3265;42.694;23.282;2023-04-28T06:53:57;95051.34;;;7.37;64.33
6464;BME280;3265;42.694;23.282;2023-04-28T06:56:24;95053.19;;;7.43;63.51
6464;BME280;3265;42.694;23.282;2023-04-28T06:58:53;95058.16;;;7.44;63.13
6464;BME280;3265;42.694;23.282;2023-04-28T07:01:20;95042.25;;;7.48;63.58
6464;BME280;3265;42.694;23.282;2023-04-28T07:03:47;95036.53;;;7.52;63.45
6464;BME280;3265;42.694;23.282;2023-04-28T07:06:15;95049.75;;;7.64;62.64
6464;BME280;3265;42.694;23.282;2023-04-28T07:08:42;95043.13;;;7.55;63.31
6464;BME280;3265;42.694;23.282;2023-04-28T07:11:09;95046.94;;;7.65;63.22
6464;BME280;3265;42.694;23.282;2023-04-28T07:13:36;95038.69;;;7.83;61.16
6464;BME280;3265;42.694;23.282;2023-04-28T07:16:03;95031.75;;;7.83;61.27
6464;BME280;3265;42.694;23.282;2023-04-28T07:18:30;95049.94;;;8.03;61.49
6464;BME280;3265;42.694;23.282;2023-04-28T07:20:57;95046.81;;;8.08;60.58
6464;BME280;3265;42.694;23.282;2023-04-28T07:23:25;95046.41;;;8.17;59.71
6464;BME280;3265;42.694;23.282;2023-04-28T07:25:52;95041.25;;;8.17;59.83
6464;BME280;3265;42.694;23.282;2023-04-28T07:28:19;95027.13;;;8.20;60.00
6464;BME280;3265;42.694;23.282;2023-04-28T07:30:46;95040.66;;;8.15;60.08
6464;BME280;3265;42.694;23.282;2023-04-28T07:33:13;95041.47;;;8.22;59.80
6464;BME280;3265;42.694;23.282;2023-04-28T07:35:39;95038.94;;;8.29;60.35
6464;BME280;3265;42.694;23.282;2023-04-28T07:38:06;95036.00;;;8.51;58.53
6464;BME280;3265;42.694;23.282;2023-04-28T07:40:34;95043.19;;;8.49;58.59
6464;BME280;3265;42.694;23.282;2023-04-28T07:43:01;95046.59;;;8.63;59.77
6464;BME280;3265;42.694;23.282;2023-04-28T07:45:28;95052.00;;;8.75;59.73
6464;BME280;3265;42.694;23.282;2023-04-28T07:47:55;95048.25;;;8.90;57.62
6464;BME280;3265;42.694;23.282;2023-04-28T07:50:22;95043.47;;;9.00;55.85
6464;BME280;3265;42.694;23.282;2023-04-28T07:52:49;95036.50;;;9.01;55.03
6464;BME280;3265;42.694;23.282;2023-04-28T07:55:16;95038.09;;;9.02;55.93
6464;BME280;3265;42.694;23.282;2023-04-28T07:57:44;95049.06;;;9.10;55.29
6464;BME280;3265;42.694;23.282;2023-04-28T08:00:12;95042.09;;;9.11;55.52
6464;BME280;3265;42.694;23.282;2023-04-28T08:02:39;95039.09;;;9.14;54.94
6464;BME280;3265;42.694;23.282;2023-04-28T08:05:06;95050.47;;;9.26;55.24
6464;BME280;3265;42.694;23.282;2023-04-28T08:07:33;95041.09;;;9.32;54.95
6464;BME280;3265;42.694;23.282;2023-04-28T08:10:01;95045.09;;;9.34;54.84
6464;BME280;3265;42.694;23.282;2023-04-28T08:12:28;95042.28;;;9.36;55.44
6464;BME280;3265;42.694;23.282;2023-04-28T08:14:56;95037.91;;;9.43;54.10
6464;BME280;3265;42.694;23.282;2023-04-28T08:17:24;95049.06;;;9.43;54.42
6464;BME280;3265;42.694;23.282;2023-04-28T08:19:51;95041.88;;;9.45;54.30
6464;BME280;3265;42.694;23.282;2023-04-28T08:22:18;95027.13;;;9.46;54.19
6464;BME280;3265;42.694;23.282;2023-04-28T08:24:44;95045.44;;;9.64;54.38
6464;BME280;3265;42.694;23.282;2023-04-28T08:27:11;95047.22;;;9.77;55.02
6464;BME280;3265;42.694;23.282;2023-04-28T08:29:38;95039.44;;;9.83;53.60
6464;BME280;3265;42.694;23.282;2023-04-28T08:32:07;95038.63;;;9.89;52.60
6464;BME280;3265;42.694;23.282;2023-04-28T08:34:33;95032.03;;;9.87;53.25
6464;BME280;3265;42.694;23.282;2023-04-28T08:37:00;95036.03;;;9.89;53.50
6464;BME280;3265;42.694;23.282;2023-04-28T08:39:27;95026.81;;;9.93;53.05
6464;BME280;3265;42.694;23.282;2023-04-28T08:41:56;95032.16;;;10.05;54.06
6464;BME280;3265;42.694;23.282;2023-04-28T08:44:22;95036.75;;;10.16;53.54
6464;BME280;3265;42.694;23.282;2023-04-28T08:46:53;95020.91;;;10.31;53.08
6464;BME280;3265;42.694;23.282;2023-04-28T08:49:31;95016.41;;;10.51;54.70
6464;BME280;3265;42.694;23.282;2023-04-28T08:52:00;95016.94;;;10.66;53.95
6464;BME280;3265;42.694;23.282;2023-04-28T08:54:29;95014.84;;;10.81;54.26
6464;BME280;3265;42.694;23.282;2023-04-28T08:56:57;95004.59;;;10.86;53.23
6464;BME280;3265;42.694;23.282;2023-04-28T08:59:24;95023.63;;;11.11;50.56
6464;BME280;3265;42.694;23.282;2023-04-28T09:01:51;95017.38;;;11.19;51.97
6464;BME280;3265;42.694;23.282;2023-04-28T09:04:18;95019.69;;;11.27;50.91
6464;BME280;3265;42.694;23.282;2023-04-28T09:06:46;95023.25;;;11.32;50.08
6464;BME280;3265;42.694;23.282;2023-04-28T09:09:20;95007.78;;;11.37;50.91
6464;BME280;3265;42.694;23.282;2023-04-28T09:11:50;95003.75;;;11.42;49.71
6464;BME280;3265;42.694;23.282;2023-04-28T09:14:17;95015.03;;;11.35;48.19
6464;BME280;3265;42.694;23.282;2023-04-28T09:16:44;95013.94;;;11.43;48.15
6464;BME280;3265;42.694;23.282;2023-04-28T09:19:11;94999.44;;;11.54;47.90
6464;BME280;3265;42.694;23.282;2023-04-28T09:21:47;95002.69;;;11.49;49.09
6464;BME280;3265;42.694;23.282;2023-04-28T09:24:27;94997.72;;;11.66;50.78
6464;BME280;3265;42.694;23.282;2023-04-28T09:26:55;94996.09;;;11.89;50.70
6464;BME280;3265;42.694;23.282;2023-04-28T09:29:21;95000.78;;;12.17;50.20
6464;BME280;3265;42.694;23.282;2023-04-28T09:31:48;95004.28;;;12.41;47.57
6464;BME280;3265;42.694;23.282;2023-04-28T09:34:15;94996.44;;;12.59;47.89
6464;BME280;3265;42.694;23.282;2023-04-28T09:36:42;94996.38;;;12.77;47.61
6464;BME280;3265;42.694;23.282;2023-04-28T09:39:10;94990.72;;;12.80;45.49
6464;BME280;3265;42.694;23.282;2023-04-28T09:41:38;94982.19;;;12.73;45.69
6464;BME280;3265;42.694;23.282;2023-04-28T09:44:12;94971.13;;;12.89;65.63
6464;BME280;3265;42.694;23.282;2023-04-28T09:46:39;94988.16;;;13.03;46.34
6464;BME280;3265;42.694;23.282;2023-04-28T09:49:06;94988.38;;;13.02;44.54
6464;BME280;3265;42.694;23.282;2023-04-28T09:51:34;94977.78;;;13.15;44.61
6464;BME280;3265;42.694;23.282;2023-04-28T09:54:02;94975.19;;;13.38;44.89
6464;BME280;3265;42.694;23.282;2023-04-28T09:56:32;94977.66;;;13.68;43.14
6464;BME280;3265;42.694;23.282;2023-04-28T09:59:00;94978.22;;;13.93;43.93
6464;BME280;3265;42.694;23.282;2023-04-28T10:01:31;94974.97;;;14.03;41.67
6464;BME280;3265;42.694;23.282;2023-04-28T10:03:59;94968.88;;;13.86;40.18
6464;BME280;3265;42.694;23.282;2023-04-28T10:06:27;94968.00;;;13.80;40.59
6464;BME280;3265;42.694;23.282;2023-04-28T10:08:57;94970.94;;;13.95;40.66
6464;BME280;3265;42.694;23.282;2023-04-28T10:11:27;94962.00;;;14.19;41.44
6464;BME280;3265;42.694;23.282;2023-04-28T10:13:56;94969.50;;;14.56;40.47
6464;BME280;3265;42.694;23.282;2023-04-28T10:16:23;94948.13;;;14.75;39.88
6464;BME280;3265;42.694;23.282;2023-04-28T10:18:53;94959.91;;;15.06;39.51
6464;BME280;3265;42.694;23.282;2023-04-28T10:21:22;94957.44;;;15.33;39.54
6464;BME280;3265;42.694;23.282;2023-04-28T10:24:02;94951.88;;;15.63;38.88
6464;BME280;3265;42.694;23.282;2023-04-28T10:27:07;94952.63;;;15.80;38.43
6464;BME280;3265;42.694;23.282;2023-04-28T10:29:35;94948.78;;;15.87;36.96
6464;BME280;3265;42.694;23.282;2023-04-28T10:32:19;94944.44;;;16.20;35.52
6464;BME280;3265;42.694;23.282;2023-04-28T10:34:46;94940.81;;;16.21;35.36
6464;BME280;3265;42.694;23.282;2023-04-28T10:37:14;94950.66;;;16.35;36.16
6464;BME280;3265;42.694;23.282;2023-04-28T10:42:52;94939.97;;;16.90;33.36
6464;BME280;3265;42.694;23.282;2023-04-28T10:48:22;94946.56;;;17.30;34.35
6464;BME280;3265;42.694;23.282;2023-04-28T10:51:20;94933.06;;;17.53;34.34
6464;BME280;3265;42.694;23.282;2023-04-28T10:57:16;94927.13;;;17.73;32.92
6464;BME280;3265;42.694;23.282;2023-04-28T10:59:50;94928.91;;;17.57;33.22
6464;BME280;3265;42.694;23.282;2023-04-28T11:02:39;94915.50;;;17.22;33.15
6464;BME280;3265;42.694;23.282;2023-04-28T11:05:12;94921.00;;;17.20;33.10
6464;BME280;3265;42.694;23.282;2023-04-28T11:07:39;94922.09;;;17.24;32.30
6464;BME280;3265;42.694;23.282;2023-04-28T11:10:06;94926.47;;;17.50;31.60
6464;BME280;3265;42.694;23.282;2023-04-28T11:12:33;94922.16;;;17.71;31.92
6464;BME280;3265;42.694;23.282;2023-04-28T11:15:11;94911.97;;;17.85;32.00
6464;BME280;3265;42.694;23.282;2023-04-28T11:17:39;94913.06;;;17.99;32.08
6464;BME280;3265;42.694;23.282;2023-04-28T11:20:11;94906.47;;;17.96;30.86
6464;BME280;3265;42.694;23.282;2023-04-28T11:22:43;94903.09;;;18.06;31.06
6464;BME280;3265;42.694;23.282;2023-04-28T11:25:12;94908.53;;;17.84;30.20
6464;BME280;3265;42.694;23.282;2023-04-28T11:27:39;94907.50;;;17.90;30.05
6464;BME280;3265;42.694;23.282;2023-04-28T11:30:19;94898.97;;;17.63;30.42
6464;BME280;3265;42.694;23.282;2023-04-28T11:32:48;94889.81;;;17.71;32.25
6464;BME280;3265;42.694;23.282;2023-04-28T11:35:16;94892.22;;;17.82;31.29
6464;BME280;3265;42.694;23.282;2023-04-28T11:37:44;94898.66;;;18.06;31.71
6464;BME280;3265;42.694;23.282;2023-04-28T11:40:11;94897.13;;;18.26;30.96
6464;BME280;3265;42.694;23.282;2023-04-28T11:42:46;94891.63;;;18.42;30.45
6464;BME280;3265;42.694;23.282;2023-04-28T11:45:13;94882.19;;;18.56;31.51
6464;BME280;3265;42.694;23.282;2023-04-28T11:47:40;94888.81;;;18.64;30.13
6464;BME280;3265;42.694;23.282;2023-04-28T11:50:07;94879.31;;;18.58;30.27
6464;BME280;3265;42.694;23.282;2023-04-28T11:52:34;94879.31;;;18.83;30.62
6464;BME280;3265;42.694;23.282;2023-04-28T11:55:02;94883.00;;;18.97;29.62
6464;BME280;3265;42.694;23.282;2023-04-28T11:57:29;94869.31;;;19.10;30.03
6464;BME280;3265;42.694;23.282;2023-04-28T12:00:11;94878.75;;;19.47;28.45
6464;BME280;3265;42.694;23.282;2023-04-28T12:02:38;94880.00;;;19.74;29.34
6464;BME280;3265;42.694;23.282;2023-04-28T12:05:07;94851.72;;;19.90;29.48
6464;BME280;3265;42.694;23.282;2023-04-28T12:07:40;94870.06;;;20.25;29.31
6464;BME280;3265;42.694;23.282;2023-04-28T12:10:13;94877.59;;;20.42;29.04
6464;BME280;3265;42.694;23.282;2023-04-28T12:12:41;94874.03;;;20.62;28.65
6464;BME280;3265;42.694;23.282;2023-04-28T12:15:08;94875.84;;;20.71;27.58
6464;BME280;3265;42.694;23.282;2023-04-28T12:17:37;94869.75;;;20.71;26.97
6464;BME280;3265;42.694;23.282;2023-04-28T12:20:06;94870.09;;;20.59;26.90
6464;BME280;3265;42.694;23.282;2023-04-28T12:22:43;94857.75;;;20.50;27.07
6464;BME280;3265;42.694;23.282;2023-04-28T12:25:14;94857.59;;;20.70;27.49
6464;BME280;3265;42.694;23.282;2023-04-28T12:27:58;94858.59;;;20.79;26.35
6464;BME280;3265;42.694;23.282;2023-04-28T12:30:27;94858.41;;;20.70;26.49
6464;BME280;3265;42.694;23.282;2023-04-28T12:32:54;94834.34;;;20.72;27.36
6464;BME280;3265;42.694;23.282;2023-04-28T12:35:22;94845.72;;;21.01;27.52
6464;BME280;3265;42.694;23.282;2023-04-28T12:37:49;94845.13;;;21.14;27.03
6464;BME280;3265;42.694;23.282;2023-04-28T12:40:17;94838.41;;;21.22;26.80
6464;BME280;3265;42.694;23.282;2023-04-28T12:42:44;94847.53;;;20.77;26.35
6464;BME280;3265;42.694;23.282;2023-04-28T12:45:11;94838.31;;;20.69;27.15
6464;BME280;3265;42.694;23.282;2023-04-28T12:47:38;94834.41;;;20.95;27.82
6464;BME280;3265;42.694;23.282;2023-04-28T12:50:07;94832.50;;;21.35;26.62
6464;BME280;3265;42.694;23.282;2023-04-28T12:52:34;94839.03;;;21.66;26.59
6464;BME280;3265;42.694;23.282;2023-04-28T12:55:01;94830.28;;;21.66;25.83
6464;BME280;3265;42.694;23.282;2023-04-28T12:57:30;94823.59;;;21.49;26.19
6464;BME280;3265;42.694;23.282;2023-04-28T12:59:56;94818.53;;;21.53;26.81
6464;BME280;3265;42.694;23.282;2023-04-28T13:02:23;94819.34;;;21.25;25.99
6464;BME280;3265;42.694;23.282;2023-04-28T13:04:50;94828.72;;;20.83;26.95
6464;BME280;3265;42.694;23.282;2023-04-28T13:07:17;94817.28;;;20.59;27.20
6464;BME280;3265;42.694;23.282;2023-04-28T13:09:44;94812.50;;;20.61;27.32
6464;BME280;3265;42.694;23.282;2023-04-28T13:12:11;94805.06;;;20.68;27.85
6464;BME280;3265;42.694;23.282;2023-04-28T13:14:39;94812.69;;;20.99;28.10
6464;BME280;3265;42.694;23.282;2023-04-28T13:17:07;94810.63;;;21.24;27.78
6464;BME280;3265;42.694;23.282;2023-04-28T13:19:34;94796.66;;;21.24;26.94
6464;BME280;3265;42.694;23.282;2023-04-28T13:22:02;94801.31;;;21.32;27.20
6464;BME280;3265;42.694;23.282;2023-04-28T13:24:31;94808.16;;;21.57;27.26
6464;BME280;3265;42.694;23.282;2023-04-28T13:26:59;94807.03;;;21.63;26.46
6464;BME280;3265;42.694;23.282;2023-04-28T13:29:26;94806.66;;;21.50;26.25
6464;BME280;3265;42.694;23.282;2023-04-28T13:31:54;94809.00;;;21.28;26.41
6464;BME280;3265;42.694;23.282;2023-04-28T13:34:21;94812.22;;;21.25;26.51